Time;durP1;ratioP1;P1;durP2;ratioP2;P2;SDS_P1;SDS_P2;PMS_P1;PMS_P2;Temp;Humidity;BMP_temperature;BMP_pressure;BME280_temperature;BME280_humidity;BME280_pressure;Samples;Min_cycle;Max_cycle;Signal;HPM_P1;HPM_P2
2022/04/03 00:01:22;;;;;;;;;;;;;;;24.08;36.52;93901.91;4858852;29;8881;-87
2022/04/03 00:03:58;;;;;;;;;;;;;;;24.08;36.35;93897.16;4854721;29;9102;-87
2022/04/03 00:06:36;;;;;;;;;;;;;;;24.06;36.41;93899.69;4839075;29;8765;-87
2022/04/03 00:09:13;;;;;;;;;;;;;;;24.07;35.98;93906.69;4854541;29;7087;-87
2022/04/03 00:11:42;;;;;;;;;;;;;;;24.07;35.95;93906.69;4858563;29;8739;-87
2022/04/03 00:14:08;;;;;;;;;;;;;;;24.07;37.02;93901.19;4858232;29;9005;-87
2022/04/03 00:16:37;;;;;;;;;;;;;;;24.08;36.08;93899.16;4857845;29;7040;-87
2022/04/03 00:19:07;;;;;;;;;;;;;;;24.07;36.14;93903.19;4858029;29;9001;-87
2022/04/03 00:21:36;;;;;;;;;;;;;;;24.08;35.78;93904.66;4858716;29;9111;-86
2022/04/03 00:24:03;;;;;;;;;;;;;;;24.08;36.35;93894.41;4857949;29;7076;-87
2022/04/03 00:26:35;;;;;;;;;;;;;;;24.06;36.07;93907.91;4854511;29;8939;-87
2022/04/03 00:29:06;;;;;;;;;;;;;;;24.06;35.71;93899.69;4856863;29;9182;-87
2022/04/03 00:31:37;;;;;;;;;;;;;;;24.07;36.34;93897.69;4856654;29;9108;-87
2022/04/03 00:34:12;;;;;;;;;;;;;;;24.07;36.23;93903.94;4847061;29;8752;-87
2022/04/03 00:36:40;;;;;;;;;;;;;;;24.04;35.78;93895.91;4954540;29;7216;-87
2022/04/03 00:39:07;;;;;;;;;;;;;;;24.04;35.94;93893.91;4941663;29;8739;-87
2022/04/03 00:41:44;;;;;;;;;;;;;;;24.03;35.81;93897.19;4941137;29;9023;-87
2022/04/03 00:44:11;;;;;;;;;;;;;;;24.06;35.67;93902.44;4941094;29;9274;-87
2022/04/03 00:46:44;;;;;;;;;;;;;;;24.05;35.66;93895.47;4942318;29;7181;-87
2022/04/03 00:49:21;;;;;;;;;;;;;;;24.08;35.50;93907.41;4954763;28;9096;-86
2022/04/03 00:51:48;;;;;;;;;;;;;;;24.06;35.55;93899.69;4932551;29;8944;-87
2022/04/03 00:54:19;;;;;;;;;;;;;;;24.06;35.76;93907.16;4959520;28;8663;-87
2022/04/03 00:56:45;;;;;;;;;;;;;;;24.06;35.55;93899.69;4937446;28;9125;-87
2022/04/03 00:59:14;;;;;;;;;;;;;;;23.98;35.88;93896.72;4939366;29;9031;-87
2022/04/03 01:01:50;;;;;;;;;;;;;;;24.06;35.97;93902.44;4946120;29;9040;-87
2022/04/03 01:04:15;;;;;;;;;;;;;;;24.04;35.09;93901.41;4937304;28;7030;-87
2022/04/03 01:06:46;;;;;;;;;;;;;;;24.01;35.10;93903.22;4937515;29;7028;-87
2022/04/03 01:09:13;;;;;;;;;;;;;;;23.97;35.39;93908.97;4936986;29;7208;-87
2022/04/03 01:11:52;;;;;;;;;;;;;;;24.04;36.10;93904.16;4937235;29;7082;-87
2022/04/03 01:14:38;;;;;;;;;;;;;;;24.04;35.66;93913.16;4935726;28;7115;-87
2022/04/03 01:17:06;;;;;;;;;;;;;;;24.06;35.29;93915.41;4936192;29;9351;-86
2022/04/03 01:19:34;;;;;;;;;;;;;;;24.05;35.35;93913.94;4954711;28;8823;-87
2022/04/03 01:22:06;;;;;;;;;;;;;;;24.04;35.58;93918.66;4949699;28;8722;-87
2022/04/03 01:24:33;;;;;;;;;;;;;;;24.03;34.79;93908.94;4956171;28;8664;-87
2022/04/03 01:27:12;;;;;;;;;;;;;;;24.05;35.04;93913.94;4932003;28;8769;-87
2022/04/03 01:29:42;;;;;;;;;;;;;;;24.05;35.41;93917.44;4935584;28;8810;-87
2022/04/03 01:32:16;;;;;;;;;;;;;;;24.03;34.86;93922.66;4943078;28;8083;-87
2022/04/03 01:34:46;;;;;;;;;;;;;;;23.98;35.87;93915.22;4934809;29;8888;-87
2022/04/03 01:37:44;;;;;;;;;;;;;;;23.98;35.31;93904.22;4951153;28;9083;-87
2022/04/03 01:40:15;;;;;;;;;;;;;;;23.98;34.88;93913.22;4916691;29;6857;-86
2022/04/03 01:43:02;;;;;;;;;;;;;;;24.03;35.42;93919.91;4895078;29;8757;-87
2022/04/03 01:45:31;;;;;;;;;;;;;;;24.06;34.58;93924.41;4916366;29;9047;-87
2022/04/03 01:47:57;;;;;;;;;;;;;;;24.04;35.21;93921.41;4915181;29;8755;-87
2022/04/03 01:50:26;;;;;;;;;;;;;;;24.05;35.11;93933.16;4913647;29;8730;-87
2022/04/03 01:53:00;;;;;;;;;;;;;;;24.01;35.27;93927.94;4897030;29;8745;-87
2022/04/03 01:55:26;;;;;;;;;;;;;;;23.95;34.99;93921.72;4900701;29;8945;-86
2022/04/03 01:58:06;;;;;;;;;;;;;;;24.03;35.45;93930.16;4911997;29;8997;-87
2022/04/03 02:00:44;;;;;;;;;;;;;;;24.04;35.25;93932.38;4891983;29;7525;-86
2022/04/03 02:03:41;;;;;;;;;;;;;;;24.02;34.61;93929.41;4908808;29;8758;-86
2022/04/03 02:06:19;;;;;;;;;;;;;;;24.00;34.95;93926.44;4841336;29;8906;-87
2022/04/03 02:08:45;;;;;;;;;;;;;;;24.03;34.84;93930.16;4827154;29;7225;-87
2022/04/03 02:11:11;;;;;;;;;;;;;;;23.99;34.72;93930.41;4825161;29;9017;-87
2022/04/03 02:13:37;;;;;;;;;;;;;;;24.00;34.82;93929.16;4841580;29;9032;-87
2022/04/03 02:16:06;;;;;;;;;;;;;;;24.01;34.77;93933.41;4846234;29;9129;-87
2022/04/03 02:18:36;;;;;;;;;;;;;;;24.01;34.87;93936.16;4865582;29;7181;-87
2022/04/03 02:21:04;;;;;;;;;;;;;;;24.00;34.36;93934.66;4859620;29;6989;-87
2022/04/03 02:23:37;;;;;;;;;;;;;;;23.97;34.63;93922.69;4860017;29;8621;-86
2022/04/03 02:26:08;;;;;;;;;;;;;;;23.98;34.59;93932.44;4859200;29;8827;-87
2022/04/03 02:28:39;;;;;;;;;;;;;;;23.99;35.11;93933.91;4868470;29;9088;-87
2022/04/03 02:31:14;;;;;;;;;;;;;;;23.99;34.91;93924.91;4861219;29;8731;-87
2022/04/03 02:33:43;;;;;;;;;;;;;;;23.96;34.74;93923.22;4860440;29;8747;-86
2022/04/03 02:36:25;;;;;;;;;;;;;;;23.99;35.08;93925.66;4860522;29;9298;-87
2022/04/03 02:39:00;;;;;;;;;;;;;;;23.99;34.62;93930.41;4860174;29;9380;-87
2022/04/03 02:41:28;;;;;;;;;;;;;;;23.99;34.02;93927.66;4901727;28;9330;-87
2022/04/03 02:44:03;;;;;;;;;;;;;;;23.94;34.35;93931.97;4935907;28;9073;-86
2022/04/03 02:46:45;;;;;;;;;;;;;;;23.95;35.05;93938.94;4955623;28;7959;-87
2022/04/03 02:49:15;;;;;;;;;;;;;;;23.96;34.27;93936.94;4955155;28;8721;-87
2022/04/03 02:51:48;;;;;;;;;;;;;;;23.91;34.27;93927.50;4942641;28;7275;-87
2022/04/03 02:54:14;;;;;;;;;;;;;;;23.95;34.99;93938.19;4945245;28;8710;-87
2022/04/03 02:56:40;;;;;;;;;;;;;;;23.90;34.56;93930.75;4944838;28;9507;-87
2022/04/03 02:59:18;;;;;;;;;;;;;;;23.85;34.35;93928.78;4940426;28;9180;-86
2022/04/03 03:01:51;;;;;;;;;;;;;;;23.89;34.15;93929.25;4938479;28;7033;-86
2022/04/03 03:04:22;;;;;;;;;;;;;;;23.94;34.86;93933.97;4952943;28;8759;-86
2022/04/03 03:06:48;;;;;;;;;;;;;;;23.90;34.74;93928.72;4939478;28;8998;-86
2022/04/03 03:09:20;;;;;;;;;;;;;;;23.91;34.21;93934.97;4949617;28;8783;-87
2022/04/03 03:11:49;;;;;;;;;;;;;;;23.95;34.53;93940.94;4951198;28;8808;-87
2022/04/03 03:14:19;;;;;;;;;;;;;;;23.95;35.01;93938.19;4952597;28;8776;-87
2022/04/03 03:16:50;;;;;;;;;;;;;;;23.96;34.23;93937.69;4937368;28;9091;-87
2022/04/03 03:19:18;;;;;;;;;;;;;;;23.96;34.48;93939.69;4952031;28;9115;-87
2022/04/03 03:21:44;;;;;;;;;;;;;;;23.94;34.91;93931.97;4940584;28;7272;-87
2022/04/03 03:24:11;;;;;;;;;;;;;;;23.88;34.41;93930.53;4953412;28;9199;-87
2022/04/03 03:26:46;;;;;;;;;;;;;;;23.87;33.66;93929.03;4937305;28;9004;-87
2022/04/03 03:29:12;;;;;;;;;;;;;;;23.94;34.27;93936.72;4928202;28;9289;-86
2022/04/03 03:31:40;;;;;;;;;;;;;;;23.94;34.24;93934.72;4931068;28;8788;-87
2022/04/03 03:34:09;;;;;;;;;;;;;;;23.94;33.56;93940.22;4931536;28;7262;-87
2022/04/03 03:36:35;;;;;;;;;;;;;;;23.90;34.20;93936.25;4954063;28;7405;-87
2022/04/03 03:39:02;;;;;;;;;;;;;;;23.97;34.07;93941.91;4952521;28;7107;-87
2022/04/03 03:41:28;;;;;;;;;;;;;;;23.95;33.62;93935.44;4937578;28;9063;-87
2022/04/03 03:44:10;;;;;;;;;;;;;;;23.94;34.43;93936.72;4936403;28;8766;-87
2022/04/03 03:46:45;;;;;;;;;;;;;;;23.94;34.12;93934.72;4952841;28;8710;-87
2022/04/03 03:49:12;;;;;;;;;;;;;;;23.96;34.31;93934.94;4936143;28;9065;-87
2022/04/03 03:51:38;;;;;;;;;;;;;;;23.95;34.11;93935.44;4941377;28;6865;-86
2022/04/03 03:54:11;;;;;;;;;;;;;;;23.90;34.28;93936.97;4937515;28;9192;-87
2022/04/03 03:56:38;;;;;;;;;;;;;;;23.86;33.87;93931.00;4937687;28;8756;-87
2022/04/03 03:59:12;;;;;;;;;;;;;;;23.90;34.28;93936.97;4936544;28;8764;-87
2022/04/03 04:01:38;;;;;;;;;;;;;;;23.91;34.51;93932.22;4935730;28;9003;-87
2022/04/03 04:04:06;;;;;;;;;;;;;;;23.94;34.50;93937.47;4941556;28;9054;-86
2022/04/03 04:06:38;;;;;;;;;;;;;;;23.93;34.33;93935.22;4952493;28;6948;-87
2022/04/03 04:09:33;;;;;;;;;;;;;;;23.89;34.45;93938.25;4960160;28;7040;-87
2022/04/03 04:12:10;;;;;;;;;;;;;;;23.92;33.81;93948.19;4943084;28;6990;-87
2022/04/03 04:14:41;;;;;;;;;;;;;;;23.92;32.96;93952.97;4956215;28;7311;-87
2022/04/03 04:17:10;;;;;;;;;;;;;;;23.84;33.88;93941.75;4931927;29;8187;-86
2022/04/03 04:19:36;;;;;;;;;;;;;;;23.80;33.78;93946.78;4957990;28;9283;-87
2022/04/03 04:22:12;;;;;;;;;;;;;;;23.82;34.33;93944.28;4937758;29;7387;-86
2022/04/03 04:24:40;;;;;;;;;;;;;;;23.83;34.31;93956.00;4943928;28;8835;-87
2022/04/03 04:27:08;;;;;;;;;;;;;;;23.81;34.14;93942.06;4950262;28;7036;-87
2022/04/03 04:29:37;;;;;;;;;;;;;;;23.88;34.12;93952.50;4943286;28;9109;-87
2022/04/03 04:32:07;;;;;;;;;;;;;;;23.81;33.57;93953.03;4951436;29;9348;-86
2022/04/03 04:34:38;;;;;;;;;;;;;;;23.80;33.72;93954.28;4931887;29;8978;-87
2022/04/03 04:37:05;;;;;;;;;;;;;;;23.81;33.59;93958.53;4934063;29;8861;-87
2022/04/03 04:39:31;;;;;;;;;;;;;;;23.74;33.97;93950.81;4944387;29;7629;-87
2022/04/03 04:42:03;;;;;;;;;;;;;;;23.75;33.92;93955.06;4928716;29;8749;-87
2022/04/03 04:44:30;;;;;;;;;;;;;;;23.82;33.83;93966.25;4955320;28;8752;-87
2022/04/03 04:47:06;;;;;;;;;;;;;;;23.86;34.22;93974.97;4939224;28;7021;-86
2022/04/03 04:49:39;;;;;;;;;;;;;;;23.84;33.57;93965.72;4955344;28;9036;-87
2022/04/03 04:52:05;;;;;;;;;;;;;;;23.83;34.07;93975.25;4948640;29;9105;-87
2022/04/03 04:54:42;;;;;;;;;;;;;;;23.84;33.64;93979.47;4956248;28;9112;-87
2022/04/03 04:57:16;;;;;;;;;;;;;;;23.87;33.39;93981.19;4945183;28;9401;-87
2022/04/03 04:59:42;;;;;;;;;;;;;;;23.84;33.77;93977.47;4948502;28;9031;-87
2022/04/03 05:02:15;;;;;;;;;;;;;;;23.83;33.50;93984.22;4948629;28;8996;-87
2022/04/03 05:04:47;;;;;;;;;;;;;;;23.79;33.47;93980.97;4948663;28;9018;-86
2022/04/03 05:07:26;;;;;;;;;;;;;;;23.84;33.57;93977.47;4950379;28;8725;-87
2022/04/03 05:10:02;;;;;;;;;;;;;;;23.85;33.09;93980.97;4955590;28;8654;-85
2022/04/03 05:12:37;;;;;;;;;;;;;;;23.86;33.26;93977.69;4934474;28;8743;-86
2022/04/03 05:15:11;;;;;;;;;;;;;;;23.82;33.60;93973.72;4941146;28;8707;-85
2022/04/03 05:17:44;;;;;;;;;;;;;;;23.88;33.13;93985.44;4941440;28;9359;-85
2022/04/03 05:20:14;;;;;;;;;;;;;;;23.88;32.13;93983.44;4948248;28;8735;-86
2022/04/03 05:22:51;;;;;;;;;;;;;;;23.89;32.01;93993.19;4931887;28;9042;-85
2022/04/03 05:25:27;;;;;;;;;;;;;;;23.92;32.44;93992.13;4943353;28;8730;-86
2022/04/03 05:28:00;;;;;;;;;;;;;;;23.91;31.92;93998.16;4961678;28;8805;-86
2022/04/03 05:30:38;;;;;;;;;;;;;;;23.92;32.09;93999.66;4941944;28;8844;-86
2022/04/03 05:33:06;;;;;;;;;;;;;;;23.92;31.77;94002.41;4953109;28;9044;-85
2022/04/03 05:35:33;;;;;;;;;;;;;;;23.86;32.17;93999.66;4954842;28;9052;-85
2022/04/03 05:38:01;;;;;;;;;;;;;;;23.89;32.55;94003.41;4952249;28;9042;-85
2022/04/03 05:40:59;;;;;;;;;;;;;;;23.92;32.96;94005.16;4950365;28;8753;-85
2022/04/03 05:43:25;;;;;;;;;;;;;;;23.92;32.74;94008.63;4949086;28;9087;-85
2022/04/03 05:45:57;;;;;;;;;;;;;;;23.92;32.61;94000.38;4955048;28;7118;-85
2022/04/03 05:48:33;;;;;;;;;;;;;;;23.86;32.37;93999.66;4939566;28;9017;-85
2022/04/03 05:51:08;;;;;;;;;;;;;;;23.93;32.66;94003.88;4951990;28;8801;-84
2022/04/03 05:53:35;;;;;;;;;;;;;;;23.93;32.22;94003.88;4956644;28;9010;-84
2022/04/03 05:56:07;;;;;;;;;;;;;;;23.94;32.89;94005.38;4957196;28;7282;-84
2022/04/03 05:58:39;;;;;;;;;;;;;;;23.94;32.35;94005.38;4945919;28;9040;-84
2022/04/03 06:01:05;;;;;;;;;;;;;;;23.88;32.30;93999.91;4942653;28;8757;-84
2022/04/03 06:03:41;;;;;;;;;;;;;;;23.94;32.48;94011.63;4940732;28;7252;-84
2022/04/03 06:06:07;;;;;;;;;;;;;;;23.92;32.54;94016.84;4955786;28;9370;-84
2022/04/03 06:08:33;;;;;;;;;;;;;;;23.89;32.09;94022.63;4941592;28;8690;-85
2022/04/03 06:11:01;;;;;;;;;;;;;;;23.88;32.00;94021.16;4956564;28;8648;-85
2022/04/03 06:13:29;;;;;;;;;;;;;;;23.89;32.04;94014.41;4949878;28;7233;-85
2022/04/03 06:15:55;;;;;;;;;;;;;;;23.91;32.02;94031.13;4950263;28;7614;-84
2022/04/03 06:18:23;;;;;;;;;;;;;;;23.84;32.42;94017.91;4937849;28;8999;-84
2022/04/03 06:20:49;;;;;;;;;;;;;;;23.81;32.33;94016.19;4937569;28;9009;-85
2022/04/03 06:23:20;;;;;;;;;;;;;;;23.90;32.26;94035.84;4946576;28;8718;-85
2022/04/03 06:25:52;;;;;;;;;;;;;;;23.92;32.56;94035.38;4939813;28;9011;-85
2022/04/03 06:28:18;;;;;;;;;;;;;;;23.90;32.92;94035.13;4939389;28;9262;-85
2022/04/03 06:31:01;;;;;;;;;;;;;;;23.93;32.51;94036.84;4939739;28;7054;-85
2022/04/03 06:33:31;;;;;;;;;;;;;;;23.95;32.79;94034.31;4937456;28;7395;-85
2022/04/03 06:36:02;;;;;;;;;;;;;;;23.94;32.80;94038.34;4953919;28;7280;-83
2022/04/03 06:38:32;;;;;;;;;;;;;;;23.94;32.49;94035.59;4944421;28;8722;-85
2022/04/03 06:40:59;;;;;;;;;;;;;;;23.88;32.52;94029.41;4948584;28;9176;-85
2022/04/03 06:43:28;;;;;;;;;;;;;;;23.82;33.18;94021.16;4936575;28;8700;-85
2022/04/03 06:46:05;;;;;;;;;;;;;;;23.89;38.44;94036.38;4950505;28;9118;-85
2022/04/03 06:48:31;;;;;;;;;;;;;;;23.97;34.40;94042.81;4937820;28;9071;-84
2022/04/03 06:50:58;;;;;;;;;;;;;;;23.93;38.34;94028.59;4938833;28;9044;-85
2022/04/03 06:53:26;;;;;;;;;;;;;;;24.00;35.94;94041.81;4948443;28;8740;-85
2022/04/03 06:56:03;;;;;;;;;;;;;;;23.90;34.68;94027.63;4937413;28;7153;-84
2022/04/03 06:58:35;;;;;;;;;;;;;;;24.00;35.14;94044.53;4936550;28;9025;-86
2022/04/03 07:01:02;;;;;;;;;;;;;;;24.02;34.32;94046.78;4939718;28;7425;-85
2022/04/03 07:03:32;;;;;;;;;;;;;;;24.03;34.85;94046.28;4945883;28;8590;-85
2022/04/03 07:06:09;;;;;;;;;;;;;;;;;;;;;
2022/04/03 07:08:50;;;;;;;;;;;;;;;23.98;34.10;94044.31;4916557;28;7042;-85
2022/04/03 07:11:16;;;;;;;;;;;;;;;23.98;33.82;94055.28;4937086;28;7274;-85
2022/04/03 07:13:43;;;;;;;;;;;;;;;23.98;33.93;94056.06;4952460;28;7061;-85
2022/04/03 07:16:09;;;;;;;;;;;;;;;23.98;33.95;94060.78;4954190;28;7337;-85
2022/04/03 07:18:36;;;;;;;;;;;;;;;23.94;33.60;94052.09;4946473;28;7289;-85
2022/04/03 07:21:03;;;;;;;;;;;;;;;23.97;33.66;94059.28;4957452;28;9293;-86
2022/04/03 07:23:30;;;;;;;;;;;;;;;24.02;33.89;94074.25;4941952;28;8929;-85
2022/04/03 07:26:02;;;;;;;;;;;;;;;24.02;33.74;94068.75;4936311;28;8141;-86
2022/04/03 07:28:28;;;;;;;;;;;;;;;24.03;33.92;94073.00;4937231;28;7298;-86
2022/04/03 07:30:59;;;;;;;;;;;;;;;24.03;33.17;94073.00;4932523;28;7559;-85
2022/04/03 07:33:26;;;;;;;;;;;;;;;24.01;34.09;94070.78;4935443;28;7089;-87
2022/04/03 07:35:56;;;;;;;;;;;;;;;23.99;33.51;94063.03;4933837;28;7289;-86
2022/04/03 07:38:24;;;;;;;;;;;;;;;23.97;33.43;94062.03;4940469;28;7271;-86
2022/04/03 07:40:50;;;;;;;;;;;;;;;24.04;33.84;94077.97;4944706;28;7741;-86
2022/04/03 07:43:19;;;;;;;;;;;;;;;24.00;33.49;94074.75;4927032;28;9295;-86
2022/04/03 07:45:49;;;;;;;;;;;;;;;24.06;34.29;94083.00;4936458;28;9067;-86
2022/04/03 07:48:19;;;;;;;;;;;;;;;23.99;34.46;94070.50;4934596;29;8800;-86
2022/04/03 07:50:47;;;;;;;;;;;;;;;24.05;34.21;94081.50;4928811;28;8667;-86
2022/04/03 07:53:28;;;;;;;;;;;;;;;24.10;33.89;94092.47;4936032;28;9196;-86
2022/04/03 07:55:55;;;;;;;;;;;;;;;24.07;33.95;94092.75;4951813;28;8646;-86
2022/04/03 07:58:21;;;;;;;;;;;;;;;24.06;33.78;94083.75;4936147;28;7475;-86
2022/04/03 08:00:50;;;;;;;;;;;;;;;24.14;34.13;94095.69;4936535;28;6887;-86
2022/04/03 08:03:16;;;;;;;;;;;;;;;24.12;34.33;94095.44;4930269;28;8794;-86
2022/04/03 08:05:43;;;;;;;;;;;;;;;24.09;33.67;94093.72;4936433;28;7921;-86
2022/04/03 08:08:11;;;;;;;;;;;;;;;24.08;34.11;94097.72;4949214;28;9082;-86
2022/04/03 08:10:39;;;;;;;;;;;;;;;24.14;34.30;94103.19;4952350;28;8801;-86
2022/04/03 08:13:06;;;;;;;;;;;;;;;24.09;33.65;94093.72;4938670;28;8704;-86
2022/04/03 08:15:34;;;;;;;;;;;;;;;24.05;33.95;94093.25;4937413;28;7030;-86
2022/04/03 08:18:00;;;;;;;;;;;;;;;24.09;34.16;94093.72;4934515;29;7379;-86
2022/04/03 08:20:26;;;;;;;;;;;;;;;24.07;34.03;94098.22;4939546;29;7269;-84
2022/04/03 08:22:52;;;;;;;;;;;;;;;24.08;33.95;94103.22;4952241;28;7413;-85
2022/04/03 08:25:23;;;;;;;;;;;;;;;24.16;33.53;94112.44;4948251;28;8796;-85
2022/04/03 08:27:56;;;;;;;;;;;;;;;24.17;34.03;94116.66;4945523;28;9119;-85
2022/04/03 08:30:24;;;;;;;;;;;;;;;24.13;33.69;94104.44;4953301;28;7851;-85
2022/04/03 08:32:54;;;;;;;;;;;;;;;24.18;33.22;94115.41;4941054;28;9084;-85
2022/04/03 08:35:24;;;;;;;;;;;;;;;24.19;33.00;94118.88;4941080;28;8758;-85
2022/04/03 08:37:55;;;;;;;;;;;;;;;24.17;33.28;94115.91;4943512;28;8734;-85
2022/04/03 08:40:26;;;;;;;;;;;;;;;24.18;33.07;94123.66;4936989;28;8732;-85
2022/04/03 08:42:54;;;;;;;;;;;;;;;24.12;33.45;94111.22;4945038;28;8774;-86
2022/04/03 08:45:23;;;;;;;;;;;;;;;24.12;33.63;94116.69;4939830;28;9047;-85
2022/04/03 08:47:52;;;;;;;;;;;;;;;24.17;34.04;94121.41;4942224;28;9047;-86
2022/04/03 08:50:25;;;;;;;;;;;;;;;24.20;34.04;94125.91;4938011;28;8735;-84
2022/04/03 08:52:59;;;;;;;;;;;;;;;24.13;33.94;94113.44;4952859;28;9337;-85
2022/04/03 08:55:25;;;;;;;;;;;;;;;24.16;33.79;94115.19;4945257;28;9306;-85
2022/04/03 08:57:54;;;;;;;;;;;;;;;24.20;33.94;94121.16;4943678;28;8928;-86
2022/04/03 09:00:24;;;;;;;;;;;;;;;24.20;34.14;94125.91;4937838;28;9313;-85
2022/04/03 09:02:52;;;;;;;;;;;;;;;24.16;33.90;94115.19;4951079;28;8752;-85
2022/04/03 09:05:19;;;;;;;;;;;;;;;24.23;34.03;94124.88;4937344;28;7232;-85
2022/04/03 09:08:01;;;;;;;;;;;;;;;24.24;34.23;94127.13;4953342;28;7036;-85
2022/04/03 09:10:28;;;;;;;;;;;;;;;24.23;34.44;94116.66;4952174;28;7750;-85
2022/04/03 09:13:02;;;;;;;;;;;;;;;24.20;34.15;94109.41;4936965;28;7506;-85
2022/04/03 09:15:30;;;;;;;;;;;;;;;24.19;34.19;94116.16;4952977;28;7244;-85
2022/04/03 09:17:59;;;;;;;;;;;;;;;24.24;34.43;94121.63;4934939;28;7032;-85
2022/04/03 09:20:26;;;;;;;;;;;;;;;24.28;35.05;94132.34;4934754;28;9069;-85
2022/04/03 09:22:55;;;;;;;;;;;;;;;24.27;35.12;94128.84;4945481;28;8669;-85
2022/04/03 09:25:39;;;;;;;;;;;;;;;24.34;35.49;94130.31;4953477;28;9054;-86
2022/04/03 09:28:07;;;;;;;;;;;;;;;24.35;35.28;94132.56;4952367;28;9095;-85
2022/04/03 09:30:46;;;;;;;;;;;;;;;24.38;35.40;94133.56;4952560;28;8159;-85
2022/04/03 09:33:22;;;;;;;;;;;;;;;24.39;35.40;94133.03;4951306;28;6998;-85
2022/04/03 09:36:06;;;;;;;;;;;;;;;24.37;35.33;94123.78;4948157;28;7182;-86
2022/04/03 09:38:35;;;;;;;;;;;;;;;24.39;34.90;94133.03;4952830;28;9113;-86
2022/04/03 09:41:07;;;;;;;;;;;;;;;24.37;34.97;94132.78;4946222;28;9415;-85
2022/04/03 09:43:40;;;;;;;;;;;;;;;24.41;35.24;94141.50;4944193;28;9013;-85
2022/04/03 09:46:36;;;;;;;;;;;;;;;24.41;35.39;94132.50;4938014;28;9108;-86
2022/04/03 09:49:25;;;;;;;;;;;;;;;24.43;35.38;94130.75;4890924;29;6992;-86
2022/04/03 09:51:54;;;;;;;;;;;;;;;24.36;35.48;94117.53;4911168;29;9003;-86
2022/04/03 09:54:30;;;;;;;;;;;;;;;24.39;35.77;94129.53;4897014;29;7030;-86
2022/04/03 09:56:58;;;;;;;;;;;;;;;24.42;36.66;94134.78;4895339;29;9090;-86
2022/04/03 09:59:29;;;;;;;;;;;;;;;24.43;37.54;94130.75;4897691;29;7033;-86
2022/04/03 10:01:57;;;;;;;;;;;;;;;24.46;37.32;94126.25;4895338;29;6982;-86
2022/04/03 10:04:35;;;;;;;;;;;;;;;24.47;35.92;94120.22;4896859;29;9054;-86
2022/04/03 10:07:05;;;;;;;;;;;;;;;24.44;36.95;94123.25;4895482;29;9235;-86
2022/04/03 10:09:44;;;;;;;;;;;;;;;24.45;37.16;94130.22;4893044;29;8761;-85
2022/04/03 10:12:23;;;;;;;;;;;;;;;24.46;37.27;94131.75;4898897;29;7001;-85
2022/04/03 10:14:51;;;;;;;;;;;;;;;24.43;37.65;94128.00;4903187;29;7066;-85
2022/04/03 10:17:20;;;;;;;;;;;;;;;24.42;37.31;94131.28;4902081;29;9247;-85
2022/04/03 10:19:51;;;;;;;;;;;;;;;24.39;37.82;94122.03;4917040;29;9170;-85
2022/04/03 10:22:26;;;;;;;;;;;;;;;24.34;37.31;94124.81;4914313;29;7380;-85
2022/04/03 10:25:00;;;;;;;;;;;;;;;24.35;37.83;94129.81;4902034;28;9042;-85
2022/04/03 10:27:35;;;;;;;;;;;;;;;24.36;37.69;94136.78;4948588;28;9047;-85
2022/04/03 10:30:02;;;;;;;;;;;;;;;24.36;38.35;94145.03;4937897;28;8151;-86
2022/04/03 10:32:34;;;;;;;;;;;;;;;24.36;37.73;94139.53;4948357;28;9404;-85
2022/04/03 10:35:10;;;;;;;;;;;;;;;24.36;38.21;94133.31;4951853;28;7156;-85
2022/04/03 10:37:43;;;;;;;;;;;;;;;24.35;37.60;94143.56;4940353;28;7486;-85
2022/04/03 10:40:18;;;;;;;;;;;;;;;24.35;37.99;94137.31;4933764;28;9092;-86
2022/04/03 10:42:47;;;;;;;;;;;;;;;24.36;37.82;94136.78;4954119;28;8805;-86
2022/04/03 10:45:17;;;;;;;;;;;;;;;24.38;38.70;94148.00;4932711;28;9010;-86
2022/04/03 10:48:12;;;;;;;;;;;;;;;24.36;37.93;94144.31;4950478;28;8750;-89
2022/04/03 10:51:01;;;;;;;;;;;;;;;24.38;37.33;94139.78;4952163;28;7169;-85
2022/04/03 10:53:38;;;;;;;;;;;;;;;24.38;37.16;94139.78;4934552;28;8086;-85
2022/04/03 10:56:10;;;;;;;;;;;;;;;24.40;37.73;94151.00;4933977;28;8858;-85
2022/04/03 10:59:09;;;;;;;;;;;;;;;24.43;37.44;94141.75;4957769;28;8717;-85
2022/04/03 11:01:38;;;;;;;;;;;;;;;24.44;37.60;94145.25;4945139;28;9048;-85
2022/04/03 11:04:12;;;;;;;;;;;;;;;24.43;37.37;94144.50;4939796;28;9074;-85
2022/04/03 11:06:45;;;;;;;;;;;;;;;24.41;37.25;94138.00;4937185;28;8989;-85
2022/04/03 11:09:21;;;;;;;;;;;;;;;24.45;37.43;94147.47;4944011;28;9033;-86
2022/04/03 11:11:58;;;;;;;;;;;;;;;24.45;37.63;94141.22;4930350;28;9003;-86
2022/04/03 11:14:55;;;;;;;;;;;;;;;24.50;37.45;94151.47;4953204;28;9219;-86
2022/04/03 11:17:52;;;;;;;;;;;;;;;24.48;37.35;94146.47;4938874;28;9399;-85
2022/04/03 11:20:33;;;;;;;;;;;;;;;24.50;37.34;94148.72;4945947;28;8730;-85
2022/04/03 11:23:01;;;;;;;;;;;;;;;24.50;37.46;94149.47;4938158;28;7248;-85
2022/04/03 11:25:28;;;;;;;;;;;;;;;24.48;37.18;94143.72;4937409;28;8972;-85
2022/04/03 11:28:06;;;;;;;;;;;;;;;24.51;37.77;94145.44;4940600;28;8841;-85
2022/04/03 11:30:35;;;;;;;;;;;;;;;24.52;37.71;94143.44;4949753;28;8042;-85
2022/04/03 11:33:05;;;;;;;;;;;;;;;24.52;37.47;94135.19;4952171;28;8795;-86
2022/04/03 11:35:40;;;;;;;;;;;;;;;24.55;37.78;94142.44;4951309;28;9135;-86
2022/04/03 11:38:17;;;;;;;;;;;;;;;24.55;37.13;94147.94;4948790;28;9033;-86
2022/04/03 11:40:44;;;;;;;;;;;;;;;24.56;37.58;94150.16;4928176;28;9086;-86
2022/04/03 11:43:19;;;;;;;;;;;;;;;24.59;37.74;94151.91;4937136;28;7266;-86
2022/04/03 11:46:14;;;;;;;;;;;;;;;24.58;37.85;94150.41;4951607;28;9034;-88
2022/04/03 11:48:43;;;;;;;;;;;;;;;24.56;37.80;94149.41;4934000;28;6865;-89
2022/04/03 11:51:20;;;;;;;;;;;;;;;24.59;37.82;94157.41;4948385;28;8667;-86
2022/04/03 11:53:56;;;;;;;;;;;;;;;24.48;38.08;94140.97;4934011;28;7266;-87
2022/04/03 11:56:25;;;;;;;;;;;;;;;24.55;38.53;94153.44;4940395;28;7110;-86
2022/04/03 11:58:59;;;;;;;;;;;;;;;24.59;37.84;94156.66;4933257;28;8613;-86
2022/04/03 12:01:36;;;;;;;;;;;;;;;24.55;38.36;94156.94;4948542;28;8811;-86
2022/04/03 12:04:16;;;;;;;;;;;;;;;24.56;38.14;94157.66;4947917;28;7031;-87
2022/04/03 12:06:50;;;;;;;;;;;;;;;24.54;38.22;94160.94;4939555;28;6865;-87
2022/04/03 12:09:37;;;;;;;;;;;;;;;24.55;38.37;94161.69;4931197;28;9084;-87
2022/04/03 12:12:05;;;;;;;;;;;;;;;24.56;38.06;94157.66;4949123;28;9042;-87
2022/04/03 12:14:33;;;;;;;;;;;;;;;24.57;38.46;94164.66;4953458;28;9321;-87
2022/04/03 12:17:04;;;;;;;;;;;;;;;24.57;38.33;94154.44;4946670;28;8804;-87
2022/04/03 12:19:36;;;;;;;;;;;;;;;24.57;38.47;94153.66;4941692;29;7332;-87
2022/04/03 12:22:08;;;;;;;;;;;;;;;24.47;37.86;94144.97;4943879;29;6950;-86
2022/04/03 12:24:40;;;;;;;;;;;;;;;24.59;38.07;94159.41;4944262;28;8756;-86
2022/04/03 12:27:08;;;;;;;;;;;;;;;24.59;38.16;94156.66;4935645;29;9171;-88
2022/04/03 12:29:35;;;;;;;;;;;;;;;24.56;38.04;94158.41;4939247;28;9034;-87
2022/04/03 12:32:03;;;;;;;;;;;;;;;24.57;37.96;94159.94;4937219;29;8732;-86
2022/04/03 12:34:38;;;;;;;;;;;;;;;24.57;37.93;94153.66;4931979;29;8814;-86
2022/04/03 12:37:11;;;;;;;;;;;;;;;24.57;38.13;94157.19;4947853;28;8732;-86
2022/04/03 12:40:02;;;;;;;;;;;;;;;24.59;38.10;94159.41;4948395;28;9232;-86
2022/04/03 12:42:35;;;;;;;;;;;;;;;24.61;37.71;94163.16;4930690;29;8727;-86
2022/04/03 12:45:13;;;;;;;;;;;;;;;24.60;38.23;94164.38;4933446;29;7092;-86
2022/04/03 12:47:47;;;;;;;;;;;;;;;24.57;38.43;94162.69;4948504;28;7043;-87
2022/04/03 12:50:13;;;;;;;;;;;;;;;24.56;38.25;94169.41;4932310;28;8815;-86
2022/04/03 12:52:47;;;;;;;;;;;;;;;24.50;37.77;94156.97;4934201;29;8816;-86
2022/04/03 12:55:28;;;;;;;;;;;;;;;24.58;38.22;94166.16;4934611;29;9003;-86
2022/04/03 13:00:52;;;;;;;;;;;;;;;24.63;38.41;94160.63;4949727;28;8842;-85
2022/04/03 13:03:49;;;;;;;;;;;;;;;24.63;37.85;94165.38;4929822;29;9037;-86
2022/04/03 13:06:35;;;;;;;;;;;;;;;24.62;37.37;94163.91;4873919;29;6872;-86
2022/04/03 13:09:01;;;;;;;;;;;;;;;24.64;37.58;94158.63;4874520;29;9085;-86
2022/04/03 13:11:48;;;;;;;;;;;;;;;24.64;38.12;94164.84;4888726;29;8753;-86
2022/04/03 13:14:17;;;;;;;;;;;;;;;24.66;38.04;94162.34;4895527;29;9058;-86
2022/04/03 13:16:52;;;;;;;;;;;;;;;24.67;38.85;94158.34;4893944;29;8759;-86
2022/04/03 13:19:21;;;;;;;;;;;;;;;24.73;38.00;94156.31;4879932;29;8611;-85
2022/04/03 13:21:51;;;;;;;;;;;;;;;24.75;38.14;94150.31;4877556;29;8792;-85
2022/04/03 13:24:23;;;;;;;;;;;;;;;24.77;38.78;94149.81;4881653;29;9064;-85
2022/04/03 13:26:51;;;;;;;;;;;;;;;24.79;38.70;94152.81;4877347;29;8569;-85